createdAt,value
2022-08-14T00:01:54.384Z,100551.91
2022-08-14T00:04:34.742Z,100546.25
2022-08-14T00:07:11.577Z,100540.59
2022-08-14T00:09:56.027Z,100537.38
2022-08-14T00:12:48.190Z,100538.16
2022-08-14T00:15:37.270Z,100533.66
2022-08-14T00:18:09.848Z,100531.63
2022-08-14T00:20:43.897Z,100532.44
2022-08-14T00:23:16.681Z,100536.84
2022-08-14T00:26:06.753Z,100521.94
2022-08-14T00:28:37.232Z,100521.09
2022-08-14T00:31:08.199Z,100518.66
2022-08-14T00:33:51.881Z,100519.44
2022-08-14T00:36:35.629Z,100514.16
2022-08-14T00:39:18.320Z,100509.75
2022-08-14T00:41:48.132Z,100515.78
2022-08-14T00:44:21.476Z,100507.75
2022-08-14T00:47:02.509Z,100503.28
2022-08-14T00:49:36.358Z,100496.81
2022-08-14T00:52:13.827Z,100505.25
2022-08-14T00:54:44.065Z,100499.53
2022-08-14T00:57:13.813Z,100504.38
2022-08-14T00:59:42.022Z,100502.34
2022-08-14T01:02:10.665Z,100505.94
2022-08-14T01:04:53.506Z,100503.47
2022-08-14T01:07:27.216Z,100499.78
2022-08-14T01:10:01.491Z,100500.16
2022-08-14T01:12:30.740Z,100498.53
2022-08-14T01:15:01.920Z,100506.97
2022-08-14T01:17:54.000Z,100486.44
2022-08-14T01:20:41.402Z,100489.25
2022-08-14T01:23:16.491Z,100488.41
2022-08-14T01:25:52.107Z,100474.72
2022-08-14T01:28:46.516Z,100479.53
2022-08-14T01:31:15.588Z,100474.66
2022-08-14T01:35:16.630Z,100475.44
2022-08-14T01:36:39.682Z,100471.81
2022-08-14T01:39:15.107Z,100477.84
2022-08-14T01:41:52.307Z,100475.41
2022-08-14T01:44:33.393Z,100463.31
2022-08-14T01:47:21.676Z,100466.53
2022-08-14T01:50:01.161Z,100467.28
2022-08-14T01:52:59.040Z,100469.66
2022-08-14T01:55:32.838Z,100457.16
2022-08-14T01:58:20.400Z,100463.56
2022-08-14T02:01:19.943Z,100451.53
2022-08-14T02:03:57.234Z,100447.06
2022-08-14T02:06:32.292Z,100442.28
2022-08-14T02:09:04.409Z,100442.22
2022-08-14T02:11:49.378Z,100443.00
2022-08-14T02:14:31.091Z,100440.94
2022-08-14T02:17:01.160Z,100432.50
2022-08-14T02:19:32.276Z,100446.94
2022-08-14T02:22:03.481Z,100438.06
2022-08-14T02:24:39.289Z,100434.03
2022-08-14T02:28:25.514Z,100425.53
2022-08-14T02:30:02.086Z,100425.88
2022-08-14T02:32:46.417Z,100429.44
2022-08-14T02:35:18.845Z,100429.03
2022-08-14T02:37:49.858Z,100422.63
2022-08-14T02:40:20.574Z,100419.78
2022-08-14T02:43:02.699Z,100427.78
2022-08-14T02:45:38.832Z,100414.16
2022-08-14T02:49:01.528Z,100413.81
2022-08-14T02:51:13.044Z,100400.94
2022-08-14T02:53:46.348Z,100406.50
2022-08-14T02:57:16.475Z,100407.66
2022-08-14T02:59:07.748Z,100406.44
2022-08-14T03:01:43.769Z,100397.56
2022-08-14T03:04:20.421Z,100403.16
2022-08-14T03:07:06.480Z,100393.91
2022-08-14T03:10:24.595Z,100403.94
2022-08-14T03:12:31.156Z,100395.91
2022-08-14T03:15:13.907Z,100393.50
2022-08-14T03:17:57.488Z,100399.94
2022-08-14T03:20:28.647Z,100391.47
2022-08-14T03:23:00.618Z,100390.22
2022-08-14T03:25:33.988Z,100379.78
2022-08-14T03:28:07.088Z,100378.16
2022-08-14T03:30:39.714Z,100371.69
2022-08-14T03:33:12.270Z,100367.66
2022-08-14T03:36:00.434Z,100369.22
2022-08-14T03:39:14.094Z,100367.59
2022-08-14T03:41:23.194Z,100362.38
2022-08-14T03:43:57.838Z,100364.75
2022-08-14T03:46:51.976Z,100349.06
2022-08-14T03:49:29.190Z,100357.88
2022-08-14T03:52:01.223Z,100352.22
2022-08-14T03:54:30.587Z,100346.19
2022-08-14T03:57:02.336Z,100344.97
2022-08-14T03:59:32.916Z,100343.38
2022-08-14T04:02:04.524Z,100338.13
2022-08-14T04:04:38.101Z,100333.00
2022-08-14T04:07:10.884Z,100338.66
2022-08-14T04:09:39.453Z,100349.09
2022-08-14T04:12:13.498Z,100336.66
2022-08-14T04:14:43.613Z,100326.59
2022-08-14T04:17:13.953Z,100325.75
2022-08-14T04:19:45.042Z,100338.59
2022-08-14T04:22:13.928Z,100338.16
2022-08-14T04:24:45.280Z,100337.75
2022-08-14T04:27:17.835Z,100332.53
2022-08-14T04:29:46.103Z,100329.72
2022-08-14T04:32:57.683Z,100333.31
2022-08-14T04:35:07.560Z,100328.91
2022-08-14T04:38:00.908Z,100332.94
2022-08-14T04:40:55.494Z,100325.75
2022-08-14T04:43:38.480Z,100332.59
2022-08-14T04:46:55.749Z,100341.06
2022-08-14T04:49:04.593Z,100337.88
2022-08-14T04:51:37.506Z,100338.75
2022-08-14T04:54:16.670Z,100336.38
2022-08-14T04:56:45.633Z,100329.22
2022-08-14T04:59:14.089Z,100324.81
2022-08-14T05:01:47.711Z,100324.44
2022-08-14T05:04:21.093Z,100329.69
2022-08-14T05:06:53.635Z,100328.53
2022-08-14T05:09:29.054Z,100322.94
2022-08-14T05:12:08.564Z,100324.53
2022-08-14T05:14:55.121Z,100322.19
2022-08-14T05:17:31.896Z,100328.63
2022-08-14T05:21:57.918Z,100331.09
2022-08-14T05:23:01.696Z,100341.59
2022-08-14T05:26:03.528Z,100338.06
2022-08-14T05:29:11.964Z,100332.94
2022-08-14T05:32:08.657Z,100338.63
2022-08-14T05:34:45.610Z,100334.63
2022-08-14T05:37:15.309Z,100336.25
2022-08-14T05:39:44.089Z,100336.34
2022-08-14T05:42:21.599Z,100342.38
2022-08-14T05:45:00.075Z,100339.59
2022-08-14T05:47:28.908Z,100333.19
2022-08-14T05:50:02.242Z,100336.03
2022-08-14T05:52:39.180Z,100327.63
2022-08-14T05:55:11.471Z,100322.84
2022-08-14T05:58:05.948Z,100322.06
2022-08-14T06:00:41.319Z,100313.25
2022-08-14T06:03:16.783Z,100318.16
2022-08-14T06:05:54.148Z,100321.38
2022-08-14T06:08:36.631Z,100312.97
2022-08-14T06:11:10.436Z,100305.38
2022-08-14T06:13:45.103Z,100309.00
2022-08-14T06:16:22.538Z,100308.19
2022-08-14T06:18:52.911Z,100316.69
2022-08-14T06:21:24.753Z,100309.47
2022-08-14T06:23:54.352Z,100310.31
2022-08-14T06:26:22.722Z,100306.72
2022-08-14T06:28:59.169Z,100313.56
2022-08-14T06:31:38.759Z,100315.59
2022-08-14T06:35:04.694Z,100308.38
2022-08-14T06:36:56.997Z,100307.97
2022-08-14T06:39:37.206Z,100296.31
2022-08-14T06:42:06.096Z,100297.91
2022-08-14T06:44:34.436Z,100297.09
2022-08-14T06:47:04.456Z,100295.91
2022-08-14T06:49:58.432Z,100303.16
2022-08-14T06:52:27.022Z,100304.38
2022-08-14T06:54:57.721Z,100299.91
2022-08-14T06:57:26.641Z,100300.69
2022-08-14T06:59:54.863Z,100293.81
2022-08-14T07:02:43.665Z,100294.22
2022-08-14T07:05:30.348Z,100305.47
2022-08-14T07:07:59.441Z,100298.25
2022-08-14T07:10:28.087Z,100292.53
2022-08-14T07:13:03.737Z,100292.97
2022-08-14T07:15:39.562Z,100294.88
2022-08-14T07:18:12.175Z,100298.03
2022-08-14T07:20:42.196Z,100293.16
2022-08-14T07:23:19.786Z,100293.94
2022-08-14T07:25:53.007Z,100294.69
2022-08-14T07:28:42.117Z,100297.06
2022-08-14T07:31:12.800Z,100296.59
2022-08-14T07:33:51.116Z,100306.28
2022-08-14T07:36:26.922Z,100292.81
2022-08-14T07:39:00.878Z,100290.34
2022-08-14T07:41:35.602Z,100289.59
2022-08-14T07:44:28.868Z,100281.72
2022-08-14T07:46:52.964Z,100272.41
2022-08-14T07:49:24.479Z,100271.50
2022-08-14T07:51:53.249Z,100265.66
2022-08-14T07:54:23.151Z,100261.63
2022-08-14T07:57:06.245Z,100264.41
2022-08-14T07:59:41.981Z,100272.75
2022-08-14T08:02:18.040Z,100264.25
2022-08-14T08:04:59.329Z,100267.13
2022-08-14T08:07:32.014Z,100268.72
2022-08-14T08:11:01.990Z,100269.72
2022-08-14T08:13:33.607Z,100268.38
2022-08-14T08:16:05.149Z,100254.56
2022-08-14T08:18:42.419Z,100262.53
2022-08-14T08:21:15.324Z,100261.22
2022-08-14T08:23:51.314Z,100255.22
2022-08-14T08:26:31.009Z,100263.09
2022-08-14T08:29:01.329Z,100257.38
2022-08-14T08:31:35.212Z,100257.22
2022-08-14T08:34:07.783Z,100254.47
2022-08-14T08:36:47.005Z,100247.47
2022-08-14T08:39:22.644Z,100253.84
2022-08-14T08:41:53.467Z,100240.66
2022-08-14T08:44:39.207Z,100243.16
2022-08-14T08:47:07.971Z,100234.38
2022-08-14T08:49:48.382Z,100241.03
2022-08-14T08:52:30.917Z,100238.56
2022-08-14T08:55:05.014Z,100236.41
2022-08-14T08:58:12.431Z,100227.19
2022-08-14T09:00:54.131Z,100216.78
2022-08-14T09:03:48.300Z,100210.59
2022-08-14T09:07:00.609Z,100206.34
2022-08-14T09:09:26.754Z,100195.28
2022-08-14T09:12:07.148Z,100203.53
2022-08-14T09:14:41.637Z,100197.19
2022-08-14T09:17:18.456Z,100192.84
2022-08-14T09:19:48.667Z,100181.19
2022-08-14T09:22:35.483Z,100178.56
2022-08-14T09:25:08.222Z,100171.22
2022-08-14T09:27:41.371Z,100173.97
2022-08-14T09:30:33.184Z,100169.91
2022-08-14T09:33:10.856Z,100164.06
2022-08-14T09:36:43.636Z,100163.19
2022-08-14T09:39:40.527Z,100162.31
2022-08-14T09:43:22.386Z,100158.44
2022-08-14T09:45:53.871Z,100152.75
2022-08-14T09:48:27.618Z,100144.41
2022-08-14T09:54:12.853Z,100133.50
2022-08-14T09:56:56.753Z,100137.63
2022-08-14T09:59:28.393Z,100132.19
2022-08-14T10:02:07.104Z,100134.13
2022-08-14T10:05:10.094Z,100137.31
2022-08-14T10:07:57.493Z,100137.47
2022-08-14T10:10:34.377Z,100130.44
2022-08-14T10:13:24.824Z,100124.59
2022-08-14T10:16:01.962Z,100126.94
2022-08-14T10:18:35.812Z,100118.84
2022-08-14T10:21:30.051Z,100102.66
2022-08-14T10:24:10.388Z,100102.47
2022-08-14T10:27:01.341Z,100096.78
2022-08-14T10:29:38.305Z,100096.91
2022-08-14T10:32:18.053Z,100093.78
2022-08-14T10:35:14.958Z,100095.63
2022-08-14T10:37:50.504Z,100090.84
2022-08-14T10:40:37.433Z,100088.09
2022-08-14T10:43:36.090Z,100081.66
2022-08-14T10:47:36.467Z,100078.41
2022-08-14T10:49:26.512Z,100075.88
2022-08-14T10:52:11.652Z,100073.00
2022-08-14T10:55:19.211Z,100063.22
2022-08-14T10:58:11.703Z,100061.78
2022-08-14T11:00:57.805Z,100050.34
2022-08-14T11:03:55.914Z,100048.06
2022-08-14T11:06:33.294Z,100044.97
2022-08-14T11:09:20.707Z,100040.97
2022-08-14T11:11:56.660Z,100029.63
2022-08-14T11:15:07.118Z,100036.31
2022-08-14T11:17:36.442Z,100041.41
2022-08-14T11:20:14.104Z,100039.47
2022-08-14T11:23:08.678Z,100033.19
2022-08-14T11:25:53.434Z,100028.44
2022-08-14T11:28:47.210Z,100029.53
2022-08-14T11:31:41.661Z,100027.88
2022-08-14T11:34:30.193Z,100015.22
2022-08-14T11:37:18.187Z,100010.81
2022-08-14T11:39:58.880Z,100010.19
2022-08-14T11:42:59.410Z,100001.44
2022-08-14T11:45:34.253Z,99995.78
2022-08-14T11:49:02.526Z,99986.09
2022-08-14T11:51:26.074Z,99979.03
2022-08-14T11:54:06.238Z,99984.59
2022-08-14T11:56:52.279Z,99981.84
2022-08-14T11:59:26.358Z,99978.97
2022-08-14T12:03:01.779Z,99967.59
2022-08-14T12:05:10.392Z,99969.38
2022-08-14T12:07:50.132Z,99966.47
2022-08-14T12:10:26.605Z,99966.28
2022-08-14T12:12:57.350Z,99958.75
2022-08-14T12:15:36.299Z,99963.88
2022-08-14T12:18:04.725Z,99955.00
2022-08-14T12:20:37.178Z,99955.91
2022-08-14T12:23:26.490Z,99955.38
2022-08-14T12:26:31.670Z,99951.56
2022-08-14T12:29:13.700Z,99943.94
2022-08-14T12:31:44.596Z,99946.53
2022-08-14T12:34:20.550Z,99937.69
2022-08-14T12:36:50.584Z,99938.03
2022-08-14T12:39:26.482Z,99926.59
2022-08-14T12:42:06.434Z,99934.69
2022-08-14T12:44:43.869Z,99928.63
2022-08-14T12:47:17.794Z,99916.66
2022-08-14T12:49:54.273Z,99912.00
2022-08-14T12:52:58.694Z,99899.94
2022-08-14T12:56:18.011Z,99887.16
2022-08-14T12:58:35.122Z,99885.63
2022-08-14T13:01:17.254Z,99887.00
2022-08-14T13:03:49.085Z,99887.19
2022-08-14T13:06:23.130Z,99898.06
2022-08-14T13:08:53.806Z,99891.09
2022-08-14T13:11:59.028Z,99891.88
2022-08-14T13:14:39.360Z,99886.78
2022-08-14T13:17:07.471Z,99879.59
2022-08-14T13:19:40.440Z,99882.03
2022-08-14T13:22:10.352Z,99876.66
2022-08-14T13:24:56.233Z,99882.22
2022-08-14T13:27:28.772Z,99887.16
2022-08-14T13:30:03.995Z,99881.09
2022-08-14T13:32:40.835Z,99874.28
2022-08-14T13:35:12.154Z,99874.63
2022-08-14T13:37:45.787Z,99856.22
2022-08-14T13:40:20.051Z,99845.28
2022-08-14T13:42:52.995Z,99851.66
2022-08-14T13:45:34.188Z,99839.63
2022-08-14T13:48:27.336Z,99838.25
2022-08-14T13:51:04.821Z,99832.84
2022-08-14T13:54:06.874Z,99834.84
2022-08-14T13:56:40.028Z,99828.88
2022-08-14T13:59:08.878Z,99835.09
2022-08-14T14:01:42.742Z,99831.94
2022-08-14T14:04:19.723Z,99826.63
2022-08-14T14:06:51.382Z,99817.31
2022-08-14T14:09:32.495Z,99813.44
2022-08-14T14:12:38.506Z,99817.19
2022-08-14T14:14:56.599Z,99813.06
2022-08-14T14:17:33.029Z,99809.13
2022-08-14T14:20:04.537Z,99815.75
2022-08-14T14:22:35.654Z,99810.06
2022-08-14T14:25:21.954Z,99806.94
2022-08-14T14:27:53.435Z,99801.16
2022-08-14T14:30:52.313Z,99798.97
2022-08-14T14:33:42.544Z,99795.47
2022-08-14T14:36:01.939Z,99788.22
2022-08-14T14:38:34.118Z,99780.84
2022-08-14T14:41:02.566Z,99774.59
2022-08-14T14:43:34.043Z,99766.72
2022-08-14T14:46:08.618Z,99767.50
2022-08-14T14:48:53.785Z,99760.25
2022-08-14T14:51:22.518Z,99747.94
2022-08-14T14:53:50.230Z,99745.22
2022-08-14T14:56:50.364Z,99737.28
2022-08-14T14:59:06.851Z,99735.38
2022-08-14T15:01:35.913Z,99735.19
2022-08-14T15:04:08.357Z,99732.06
2022-08-14T15:06:48.724Z,99726.19
2022-08-14T15:09:17.596Z,99724.47
2022-08-14T15:11:47.598Z,99735.50
2022-08-14T15:14:56.031Z,99718.59
2022-08-14T15:17:03.748Z,99718.34
2022-08-14T15:19:42.044Z,99716.88
2022-08-14T15:22:25.253Z,99727.38
2022-08-14T15:24:53.244Z,99726.56
2022-08-14T15:27:21.439Z,99720.00
2022-08-14T15:29:55.785Z,99716.47
2022-08-14T15:32:25.190Z,99718.84
2022-08-14T15:34:58.085Z,99713.72
2022-08-14T15:37:32.671Z,99710.22
2022-08-14T15:40:02.199Z,99712.59
2022-08-14T15:42:30.282Z,99708.44
2022-08-14T15:45:01.732Z,99705.19
2022-08-14T15:47:32.343Z,99697.78
2022-08-14T15:50:04.743Z,99709.84
2022-08-14T15:52:37.150Z,99703.63
2022-08-14T15:55:12.958Z,99696.75
2022-08-14T15:58:01.286Z,99691.03
2022-08-14T16:00:54.806Z,99711.03
2022-08-14T16:03:27.261Z,99701.88
2022-08-14T16:06:15.657Z,99701.50
2022-08-14T16:08:50.104Z,99696.44
2022-08-14T16:11:26.547Z,99688.75
2022-08-14T16:13:57.542Z,99693.09
2022-08-14T16:16:47.586Z,99687.03
2022-08-14T16:19:19.341Z,99683.72
2022-08-14T16:22:02.078Z,99690.66
2022-08-14T16:25:03.437Z,99683.31
2022-08-14T16:27:37.146Z,99679.63
2022-08-14T16:30:25.261Z,99683.19
2022-08-14T16:32:59.082Z,99676.91
2022-08-14T16:35:43.409Z,99677.25
2022-08-14T16:38:48.182Z,99682.56
2022-08-14T16:41:16.995Z,99675.84
2022-08-14T16:43:45.525Z,99661.09
2022-08-14T16:46:22.545Z,99665.81
2022-08-14T16:48:56.894Z,99657.16
2022-08-14T16:51:31.008Z,99661.69
2022-08-14T16:54:34.430Z,99652.44
2022-08-14T16:57:25.835Z,99658.69
2022-08-14T17:00:43.037Z,99662.16
2022-08-14T17:03:12.919Z,99658.88
2022-08-14T17:05:47.069Z,99654.56
2022-08-14T17:08:41.597Z,99657.53
2022-08-14T17:11:15.830Z,99656.69
2022-08-14T17:14:00.780Z,99657.53
2022-08-14T17:16:37.559Z,99658.94
2022-08-14T17:19:13.383Z,99658.47
2022-08-14T17:22:13.985Z,99648.59
2022-08-14T17:24:56.699Z,99658.66
2022-08-14T17:27:29.722Z,99652.94
2022-08-14T17:29:57.997Z,99654.16
2022-08-14T17:32:56.266Z,99647.88
2022-08-14T17:35:57.611Z,99648.56
2022-08-14T17:38:38.578Z,99651.91
2022-08-14T17:41:27.183Z,99644.81
2022-08-14T17:44:45.180Z,99643.84
2022-08-14T17:47:18.207Z,99647.06
2022-08-14T17:49:53.844Z,99649.38
2022-08-14T17:52:34.165Z,99652.91
2022-08-14T17:55:12.410Z,99646.66
2022-08-14T17:57:42.523Z,99653.84
2022-08-14T18:00:16.419Z,99657.13
2022-08-14T18:02:50.520Z,99652.94
2022-08-14T18:06:07.367Z,99650.78
2022-08-14T18:08:32.961Z,99650.81
2022-08-14T18:11:02.400Z,99665.25
2022-08-14T18:13:51.299Z,99660.16
2022-08-14T18:16:38.371Z,99657.16
2022-08-14T18:19:15.778Z,99663.88
2022-08-14T18:21:57.188Z,99659.91
2022-08-14T18:24:29.791Z,99660.41
2022-08-14T18:27:12.327Z,99659.22
2022-08-14T18:29:54.509Z,99660.31
2022-08-14T18:32:30.892Z,99659.16
2022-08-14T18:35:13.719Z,99653.19
2022-08-14T18:37:55.705Z,99663.84
2022-08-14T18:40:35.001Z,99661.59
2022-08-14T18:43:06.188Z,99655.84
2022-08-14T18:45:42.929Z,99659.00
2022-08-14T18:48:20.855Z,99661.09
2022-08-14T18:50:53.052Z,99656.06
2022-08-14T18:53:34.268Z,99661.66
2022-08-14T18:56:09.814Z,99661.53
2022-08-14T18:58:57.035Z,99656.81
2022-08-14T19:01:56.111Z,99663.81
2022-08-14T19:04:37.368Z,99664.91
2022-08-14T19:07:19.322Z,99663.63
2022-08-14T19:10:08.779Z,99660.13
2022-08-14T19:12:53.347Z,99671.34
2022-08-14T19:15:29.195Z,99668.31
2022-08-14T19:18:10.940Z,99663.81
2022-08-14T19:21:00.835Z,99677.53
2022-08-14T19:23:42.497Z,99674.47
2022-08-14T19:26:34.660Z,99670.94
2022-08-14T19:29:37.655Z,99674.63
2022-08-14T19:32:39.145Z,99673.59
2022-08-14T19:35:18.477Z,99674.03
2022-08-14T19:37:54.814Z,99671.56
2022-08-14T19:40:33.839Z,99665.13
2022-08-14T19:43:06.424Z,99668.69
2022-08-14T19:45:35.073Z,99671.75
2022-08-14T19:48:13.159Z,99668.66
2022-08-14T19:50:45.025Z,99669.63
2022-08-14T19:53:17.339Z,99664.41
2022-08-14T19:56:02.362Z,99667.84
2022-08-14T19:58:55.173Z,99668.09
2022-08-14T20:01:36.677Z,99662.19
2022-08-14T20:04:45.881Z,99669.03
2022-08-14T20:09:05.597Z,99662.56
2022-08-14T20:11:11.062Z,99667.44
2022-08-14T20:13:32.041Z,99666.28
2022-08-14T20:16:12.277Z,99669.00
2022-08-14T20:18:51.634Z,99675.13
2022-08-14T20:21:21.297Z,99664.69
2022-08-14T20:23:50.471Z,99663.63
2022-08-14T20:26:30.840Z,99664.16
2022-08-14T20:29:04.973Z,99662.78
2022-08-14T20:31:37.871Z,99660.69
2022-08-14T20:34:18.702Z,99662.25
2022-08-14T20:37:09.981Z,99659.44
2022-08-14T20:39:54.837Z,99657.25
2022-08-14T20:42:43.503Z,99664.72
2022-08-14T20:45:17.909Z,99662.53
2022-08-14T20:48:08.968Z,99667.56
2022-08-14T20:50:44.907Z,99672.19
2022-08-14T20:53:32.366Z,99669.56
2022-08-14T20:56:29.949Z,99669.72
2022-08-14T20:58:58.379Z,99671.50
2022-08-14T21:01:32.525Z,99667.16
2022-08-14T21:04:04.899Z,99666.09
2022-08-14T21:07:23.161Z,99659.03
2022-08-14T21:09:43.861Z,99658.47
2022-08-14T21:12:35.250Z,99660.69
2022-08-14T21:15:11.266Z,99656.19
2022-08-14T21:17:43.139Z,99653.88
2022-08-14T21:20:25.288Z,99652.38
2022-08-14T21:22:56.373Z,99649.28
2022-08-14T21:25:24.839Z,99652.00
2022-08-14T21:28:08.560Z,99650.06
2022-08-14T21:30:56.271Z,99653.31
2022-08-14T21:33:25.001Z,99646.16
2022-08-14T21:35:54.872Z,99648.28
2022-08-14T21:38:34.127Z,99652.72
2022-08-14T21:41:41.860Z,99647.13
2022-08-14T21:44:17.877Z,99644.75
2022-08-14T21:46:54.549Z,99645.63
2022-08-14T21:49:33.783Z,99644.00
2022-08-14T21:52:51.988Z,99643.66
2022-08-14T21:55:00.438Z,99643.31
2022-08-14T21:58:46.421Z,99640.91
2022-08-14T22:00:42.589Z,99644.72
2022-08-14T22:03:16.885Z,99646.66
2022-08-14T22:05:52.404Z,99627.38
2022-08-14T22:08:22.406Z,99624.88
2022-08-14T22:10:56.392Z,99632.22
2022-08-14T22:13:26.813Z,99628.25
2022-08-14T22:16:02.300Z,99631.06
2022-08-14T22:18:30.977Z,99625.06
2022-08-14T22:20:58.750Z,99629.13
2022-08-14T22:23:27.654Z,99631.59
2022-08-14T22:25:55.619Z,99630.41
2022-08-14T22:28:33.109Z,99622.34
2022-08-14T22:31:10.082Z,99624.13
2022-08-14T22:33:40.112Z,99623.03
2022-08-14T22:36:27.175Z,99623.34
2022-08-14T22:39:02.427Z,99619.56
2022-08-14T22:41:42.243Z,99615.94
2022-08-14T22:44:25.207Z,99610.69
2022-08-14T22:46:58.819Z,99612.75
2022-08-14T22:50:31.016Z,99616.09
2022-08-14T22:52:31.827Z,99616.97
2022-08-14T22:55:05.848Z,99623.50
2022-08-14T22:57:37.921Z,99619.59
2022-08-14T23:00:25.286Z,99613.19
2022-08-14T23:03:04.091Z,99608.06
2022-08-14T23:05:39.830Z,99611.03
2022-08-14T23:08:59.674Z,99607.84
2022-08-14T23:11:10.125Z,99608.69
2022-08-14T23:13:39.685Z,99608.41
2022-08-14T23:16:08.526Z,99601.56
2022-08-14T23:18:38.749Z,99601.72
2022-08-14T23:21:11.298Z,99609.97
2022-08-14T23:23:41.533Z,99597.88
2022-08-14T23:26:48.148Z,99601.91
2022-08-14T23:28:59.339Z,99591.06
2022-08-14T23:31:35.737Z,99595.97
2022-08-14T23:34:08.343Z,99596.03
2022-08-14T23:36:54.387Z,99595.75
2022-08-14T23:39:32.100Z,99591.31
2022-08-14T23:42:08.684Z,99587.03
2022-08-14T23:44:38.980Z,99585.44
2022-08-14T23:47:11.823Z,99586.66
2022-08-14T23:50:03.157Z,99588.75
2022-08-14T23:52:50.456Z,99581.09
2022-08-14T23:55:28.075Z,99586.38
2022-08-14T23:57:57.504Z,99581.59
